createdAt,value
2023-05-05T00:09:40.546Z,4.17
2023-05-05T00:19:43.011Z,3.83
2023-05-05T00:29:45.626Z,3.67
2023-05-05T00:39:48.130Z,3.70
2023-05-05T00:49:51.118Z,4.10
2023-05-05T00:59:55.075Z,4.53
2023-05-05T01:10:36.214Z,4.30
2023-05-05T01:20:53.513Z,4.50
2023-05-05T01:31:16.529Z,4.40
2023-05-05T01:41:25.348Z,4.40
2023-05-05T01:51:28.739Z,3.93
2023-05-05T02:01:32.011Z,4.10
2023-05-05T02:11:34.919Z,4.25
2023-05-05T02:21:37.907Z,4.10
2023-05-05T02:31:53.556Z,4.00
2023-05-05T02:42:03.522Z,4.80
2023-05-05T02:52:06.612Z,4.43
2023-05-05T03:02:21.881Z,3.90
2023-05-05T03:12:31.364Z,4.40
2023-05-05T03:22:48.478Z,5.00
2023-05-05T03:32:52.030Z,4.93
2023-05-05T03:42:55.246Z,4.10
2023-05-05T03:52:57.940Z,4.63
2023-05-05T04:03:00.952Z,5.20
2023-05-05T04:13:04.281Z,4.87
2023-05-05T04:23:07.501Z,4.80
2023-05-05T04:33:11.224Z,4.67
2023-05-05T04:43:13.754Z,5.67
2023-05-05T04:53:16.490Z,4.88
2023-05-05T05:03:19.683Z,5.50
2023-05-05T05:13:23.002Z,5.40
2023-05-05T05:23:27.613Z,5.80
2023-05-05T05:33:30.650Z,5.70
2023-05-05T05:43:34.757Z,6.50
2023-05-05T05:53:38.914Z,6.67
2023-05-05T06:03:42.167Z,6.10
2023-05-05T06:13:44.964Z,5.27
2023-05-05T06:23:47.920Z,4.80
2023-05-05T06:33:51.145Z,4.80
2023-05-05T06:43:53.636Z,6.27
2023-05-05T06:53:57.282Z,4.33
2023-05-05T07:04:00.788Z,4.67
2023-05-05T07:14:03.562Z,4.50
2023-05-05T07:24:07.032Z,4.27
2023-05-05T07:34:09.888Z,7.20
2023-05-05T07:44:12.769Z,5.53
2023-05-05T07:54:16.687Z,4.53
2023-05-05T08:14:53.014Z,4.82
2023-05-05T08:24:55.725Z,5.43
2023-05-05T08:34:58.360Z,4.97
2023-05-05T08:45:00.979Z,4.60
2023-05-05T08:55:18.109Z,4.13
2023-05-05T09:05:20.961Z,4.10
2023-05-05T09:15:23.714Z,2.97
2023-05-05T09:25:26.296Z,3.70
2023-05-05T09:35:47.399Z,3.73
2023-05-05T09:45:51.019Z,3.73
2023-05-05T09:55:55.281Z,3.75
2023-05-05T10:05:59.763Z,4.00
2023-05-05T10:16:04.487Z,3.27
2023-05-05T10:26:10.352Z,3.50
2023-05-05T10:36:14.964Z,3.57
2023-05-05T10:46:18.123Z,4.00
2023-05-05T10:56:30.275Z,3.20
2023-05-05T11:06:32.890Z,3.00
2023-05-05T11:16:48.215Z,3.80
2023-05-05T11:26:51.932Z,3.40
2023-05-05T11:37:01.794Z,4.10
2023-05-05T11:47:04.541Z,3.65
2023-05-05T11:57:08.987Z,4.30
2023-05-05T12:07:16.222Z,3.50
2023-05-05T12:17:21.208Z,3.20
2023-05-05T12:27:25.005Z,3.30
2023-05-05T12:37:27.787Z,3.85
2023-05-05T12:47:32.496Z,3.77
2023-05-05T12:57:35.052Z,3.60
2023-05-05T13:07:50.554Z,3.17
2023-05-05T13:18:00.861Z,3.30
2023-05-05T13:28:03.545Z,3.13
2023-05-05T13:38:06.064Z,3.67
2023-05-05T13:48:09.037Z,3.30
2023-05-05T13:58:11.676Z,3.60
2023-05-05T14:08:14.443Z,3.30
2023-05-05T14:18:17.192Z,3.43
2023-05-05T14:28:20.112Z,3.20
2023-05-05T14:38:22.789Z,3.37
2023-05-05T14:48:25.410Z,3.50
2023-05-05T14:58:27.952Z,3.47
2023-05-05T15:08:30.885Z,2.83
2023-05-05T15:18:33.825Z,2.92
2023-05-05T15:28:36.532Z,3.50
2023-05-05T15:38:44.994Z,3.05
2023-05-05T15:48:47.429Z,2.80
2023-05-05T15:58:52.679Z,2.70
2023-05-05T16:09:00.716Z,3.75
2023-05-05T16:19:03.807Z,3.20
2023-05-05T16:29:06.317Z,4.30
2023-05-05T16:39:08.872Z,3.20
2023-05-05T16:49:11.854Z,3.23
2023-05-05T16:59:16.734Z,3.00
2023-05-05T17:09:19.448Z,3.47
2023-05-05T17:19:21.936Z,3.73
2023-05-05T17:29:24.550Z,3.40
2023-05-05T17:39:27.189Z,3.60
2023-05-05T17:49:29.913Z,3.00
2023-05-05T17:59:32.406Z,3.00
2023-05-05T18:09:36.224Z,3.63
2023-05-05T18:19:42.862Z,4.03
2023-05-05T18:29:45.622Z,3.83
2023-05-05T18:39:48.329Z,4.10
2023-05-05T18:49:50.811Z,4.55
2023-05-05T18:59:53.394Z,4.43
2023-05-05T19:09:56.416Z,3.70
2023-05-05T19:19:59.291Z,4.20
2023-05-05T19:30:01.886Z,3.55
2023-05-05T19:40:04.963Z,4.00
2023-05-05T19:50:08.414Z,3.80
2023-05-05T20:00:11.933Z,4.20
2023-05-05T20:10:14.691Z,3.87
2023-05-05T20:20:20.053Z,3.87
2023-05-05T20:30:22.641Z,4.18
2023-05-05T20:40:26.203Z,3.63
2023-05-05T20:50:28.739Z,4.57
2023-05-05T21:00:31.571Z,4.53
2023-05-05T21:10:34.718Z,4.10
2023-05-05T21:20:37.315Z,4.53
2023-05-05T21:30:39.962Z,4.23
2023-05-05T21:40:42.786Z,4.50
2023-05-05T21:50:46.063Z,3.93
2023-05-05T22:00:49.781Z,4.53
2023-05-05T22:10:52.386Z,4.30
2023-05-05T22:20:54.892Z,4.10
2023-05-05T22:30:57.838Z,4.47
2023-05-05T22:41:01.031Z,4.97
2023-05-05T22:51:03.779Z,4.70
2023-05-05T23:01:06.346Z,4.93
2023-05-05T23:11:08.999Z,4.70
2023-05-05T23:21:11.515Z,4.80
2023-05-05T23:31:14.112Z,5.00
2023-05-05T23:41:18.421Z,4.77
2023-05-05T23:51:21.170Z,4.65
